sensor_id;sensor_type;location;lat;lon;timestamp;temperature;humidity
9118;DHT22;4594;50.994;7.126;2022-07-22T00:00:31;20.30;66.90
9118;DHT22;4594;50.994;7.126;2022-07-22T00:02:57;20.30;66.90
9118;DHT22;4594;50.994;7.126;2022-07-22T00:05:22;20.30;66.90
9118;DHT22;4594;50.994;7.126;2022-07-22T00:07:48;20.30;66.90
9118;DHT22;4594;50.994;7.126;2022-07-22T00:10:14;20.30;66.90
9118;DHT22;4594;50.994;7.126;2022-07-22T00:12:39;20.30;66.80
9118;DHT22;4594;50.994;7.126;2022-07-22T00:15:07;20.30;66.90
9118;DHT22;4594;50.994;7.126;2022-07-22T00:17:34;20.30;66.80
9118;DHT22;4594;50.994;7.126;2022-07-22T00:20:02;20.30;67.00
9118;DHT22;4594;50.994;7.126;2022-07-22T00:22:30;20.30;67.00
9118;DHT22;4594;50.994;7.126;2022-07-22T00:24:55;20.30;67.10
9118;DHT22;4594;50.994;7.126;2022-07-22T00:27:21;20.30;67.10
9118;DHT22;4594;50.994;7.126;2022-07-22T00:29:47;20.20;67.00
9118;DHT22;4594;50.994;7.126;2022-07-22T00:32:12;20.30;67.10
9118;DHT22;4594;50.994;7.126;2022-07-22T00:34:38;20.30;67.10
9118;DHT22;4594;50.994;7.126;2022-07-22T00:37:04;20.30;66.80
9118;DHT22;4594;50.994;7.126;2022-07-22T00:39:30;20.30;66.70
9118;DHT22;4594;50.994;7.126;2022-07-22T00:41:56;20.20;66.50
9118;DHT22;4594;50.994;7.126;2022-07-22T00:44:22;20.20;66.40
9118;DHT22;4594;50.994;7.126;2022-07-22T00:46:47;20.10;66.30
9118;DHT22;4594;50.994;7.126;2022-07-22T00:49:13;20.20;66.40
9118;DHT22;4594;50.994;7.126;2022-07-22T00:51:39;20.20;66.50
9118;DHT22;4594;50.994;7.126;2022-07-22T00:54:06;20.10;66.30
9118;DHT22;4594;50.994;7.126;2022-07-22T00:56:32;20.10;66.40
9118;DHT22;4594;50.994;7.126;2022-07-22T00:59:02;20.20;66.40
9118;DHT22;4594;50.994;7.126;2022-07-22T01:01:30;20.10;66.20
9118;DHT22;4594;50.994;7.126;2022-07-22T01:03:56;20.10;66.50
9118;DHT22;4594;50.994;7.126;2022-07-22T01:06:21;20.10;66.50
9118;DHT22;4594;50.994;7.126;2022-07-22T01:08:48;20.10;66.40
9118;DHT22;4594;50.994;7.126;2022-07-22T01:11:18;20.10;66.20
9118;DHT22;4594;50.994;7.126;2022-07-22T01:13:47;20.10;66.00
9118;DHT22;4594;50.994;7.126;2022-07-22T01:16:14;20.10;65.90
9118;DHT22;4594;50.994;7.126;2022-07-22T01:18:41;20.10;66.20
9118;DHT22;4594;50.994;7.126;2022-07-22T01:21:08;19.90;66.20
9118;DHT22;4594;50.994;7.126;2022-07-22T01:23:35;20.00;66.20
9118;DHT22;4594;50.994;7.126;2022-07-22T01:26:02;20.00;66.30
9118;DHT22;4594;50.994;7.126;2022-07-22T01:28:28;20.00;66.30
9118;DHT22;4594;50.994;7.126;2022-07-22T01:30:54;20.00;66.30
9118;DHT22;4594;50.994;7.126;2022-07-22T01:33:21;20.00;66.40
9118;DHT22;4594;50.994;7.126;2022-07-22T01:35:49;20.00;66.40
9118;DHT22;4594;50.994;7.126;2022-07-22T01:38:16;20.00;66.40
9118;DHT22;4594;50.994;7.126;2022-07-22T01:40:43;20.00;66.30
9118;DHT22;4594;50.994;7.126;2022-07-22T01:43:09;19.90;66.10
9118;DHT22;4594;50.994;7.126;2022-07-22T01:45:35;19.90;66.10
9118;DHT22;4594;50.994;7.126;2022-07-22T01:48:01;19.90;66.10
9118;DHT22;4594;50.994;7.126;2022-07-22T01:50:28;19.90;66.20
9118;DHT22;4594;50.994;7.126;2022-07-22T01:52:54;20.00;66.30
9118;DHT22;4594;50.994;7.126;2022-07-22T01:55:20;19.90;66.00
9118;DHT22;4594;50.994;7.126;2022-07-22T01:57:46;19.80;66.10
9118;DHT22;4594;50.994;7.126;2022-07-22T02:00:12;19.90;66.20
9118;DHT22;4594;50.994;7.126;2022-07-22T02:02:38;19.90;66.10
9118;DHT22;4594;50.994;7.126;2022-07-22T02:05:05;19.90;66.10
9118;DHT22;4594;50.994;7.126;2022-07-22T02:07:32;19.90;66.10
9118;DHT22;4594;50.994;7.126;2022-07-22T02:09:57;19.80;66.20
9118;DHT22;4594;50.994;7.126;2022-07-22T02:12:23;19.90;66.30
9118;DHT22;4594;50.994;7.126;2022-07-22T02:14:49;19.90;66.30
9118;DHT22;4594;50.994;7.126;2022-07-22T02:17:15;19.90;66.30
9118;DHT22;4594;50.994;7.126;2022-07-22T02:19:41;19.90;66.10
9118;DHT22;4594;50.994;7.126;2022-07-22T02:22:07;19.90;66.00
9118;DHT22;4594;50.994;7.126;2022-07-22T02:24:34;19.80;65.90
9118;DHT22;4594;50.994;7.126;2022-07-22T02:27:00;19.80;65.70
9118;DHT22;4594;50.994;7.126;2022-07-22T02:29:27;19.80;65.90
9118;DHT22;4594;50.994;7.126;2022-07-22T02:31:53;19.90;66.00
9118;DHT22;4594;50.994;7.126;2022-07-22T02:34:19;19.80;65.90
9118;DHT22;4594;50.994;7.126;2022-07-22T02:36:45;19.80;66.00
9118;DHT22;4594;50.994;7.126;2022-07-22T02:39:10;19.60;65.80
9118;DHT22;4594;50.994;7.126;2022-07-22T02:41:36;19.80;66.00
9118;DHT22;4594;50.994;7.126;2022-07-22T02:44:02;19.70;65.90
9118;DHT22;4594;50.994;7.126;2022-07-22T02:46:28;19.70;66.10
9118;DHT22;4594;50.994;7.126;2022-07-22T02:48:54;19.70;66.10
9118;DHT22;4594;50.994;7.126;2022-07-22T02:51:20;19.70;66.20
9118;DHT22;4594;50.994;7.126;2022-07-22T02:53:46;19.70;66.20
9118;DHT22;4594;50.994;7.126;2022-07-22T02:56:12;19.70;66.20
9118;DHT22;4594;50.994;7.126;2022-07-22T02:58:39;19.70;66.20
9118;DHT22;4594;50.994;7.126;2022-07-22T03:01:05;19.70;66.20
9118;DHT22;4594;50.994;7.126;2022-07-22T03:03:31;19.50;66.10
9118;DHT22;4594;50.994;7.126;2022-07-22T03:05:57;19.60;66.10
9118;DHT22;4594;50.994;7.126;2022-07-22T03:08:23;19.60;66.30
9118;DHT22;4594;50.994;7.126;2022-07-22T03:10:48;19.60;66.50
9118;DHT22;4594;50.994;7.126;2022-07-22T03:13:14;19.70;66.80
9118;DHT22;4594;50.994;7.126;2022-07-22T03:15:40;19.60;66.70
9118;DHT22;4594;50.994;7.126;2022-07-22T03:18:05;19.60;66.60
9118;DHT22;4594;50.994;7.126;2022-07-22T03:20:31;19.60;66.60
9118;DHT22;4594;50.994;7.126;2022-07-22T03:22:58;19.60;66.70
9118;DHT22;4594;50.994;7.126;2022-07-22T03:25:24;19.60;66.80
9118;DHT22;4594;50.994;7.126;2022-07-22T03:27:50;19.60;66.90
9118;DHT22;4594;50.994;7.126;2022-07-22T03:30:16;19.60;66.80
9118;DHT22;4594;50.994;7.126;2022-07-22T03:32:42;19.60;66.90
9118;DHT22;4594;50.994;7.126;2022-07-22T03:35:11;19.70;67.10
9118;DHT22;4594;50.994;7.126;2022-07-22T03:37:38;19.60;67.20
9118;DHT22;4594;50.994;7.126;2022-07-22T03:40:05;19.60;67.40
9118;DHT22;4594;50.994;7.126;2022-07-22T03:42:31;19.60;67.40
9118;DHT22;4594;50.994;7.126;2022-07-22T03:44:57;19.60;67.50
9118;DHT22;4594;50.994;7.126;2022-07-22T03:47:23;19.60;67.50
9118;DHT22;4594;50.994;7.126;2022-07-22T03:49:49;19.70;67.50
9118;DHT22;4594;50.994;7.126;2022-07-22T03:52:16;19.70;67.50
9118;DHT22;4594;50.994;7.126;2022-07-22T03:54:42;19.70;67.70
9118;DHT22;4594;50.994;7.126;2022-07-22T03:57:09;19.70;67.70
9118;DHT22;4594;50.994;7.126;2022-07-22T03:59:35;19.70;67.70
9118;DHT22;4594;50.994;7.126;2022-07-22T04:02:01;19.70;67.50
9118;DHT22;4594;50.994;7.126;2022-07-22T04:04:28;19.70;67.40
9118;DHT22;4594;50.994;7.126;2022-07-22T04:06:54;19.70;67.30
9118;DHT22;4594;50.994;7.126;2022-07-22T04:09:21;19.70;67.30
9118;DHT22;4594;50.994;7.126;2022-07-22T04:11:47;19.70;67.40
9118;DHT22;4594;50.994;7.126;2022-07-22T04:16:41;19.70;67.60
9118;DHT22;4594;50.994;7.126;2022-07-22T04:19:09;19.80;67.80
9118;DHT22;4594;50.994;7.126;2022-07-22T04:21:36;19.80;67.80
9118;DHT22;4594;50.994;7.126;2022-07-22T04:24:01;19.80;68.00
9118;DHT22;4594;50.994;7.126;2022-07-22T04:26:28;19.80;67.90
9118;DHT22;4594;50.994;7.126;2022-07-22T04:28:54;19.80;68.00
9118;DHT22;4594;50.994;7.126;2022-07-22T04:31:19;19.80;67.90
9118;DHT22;4594;50.994;7.126;2022-07-22T04:33:45;19.80;67.90
9118;DHT22;4594;50.994;7.126;2022-07-22T04:36:11;19.80;67.90
9118;DHT22;4594;50.994;7.126;2022-07-22T04:38:36;19.90;68.00
9118;DHT22;4594;50.994;7.126;2022-07-22T04:41:02;19.90;68.00
9118;DHT22;4594;50.994;7.126;2022-07-22T04:43:28;20.00;68.10
9118;DHT22;4594;50.994;7.126;2022-07-22T04:45:55;19.90;68.00
9118;DHT22;4594;50.994;7.126;2022-07-22T04:48:21;19.90;68.10
9118;DHT22;4594;50.994;7.126;2022-07-22T04:50:47;20.00;68.30
9118;DHT22;4594;50.994;7.126;2022-07-22T04:53:12;19.90;68.20
9118;DHT22;4594;50.994;7.126;2022-07-22T04:55:38;20.00;68.20
9118;DHT22;4594;50.994;7.126;2022-07-22T04:58:04;20.00;68.10
9118;DHT22;4594;50.994;7.126;2022-07-22T05:00:30;20.00;68.10
9118;DHT22;4594;50.994;7.126;2022-07-22T05:02:56;20.00;68.20
9118;DHT22;4594;50.994;7.126;2022-07-22T05:05:22;20.00;68.30
9118;DHT22;4594;50.994;7.126;2022-07-22T05:07:48;20.00;68.40
9118;DHT22;4594;50.994;7.126;2022-07-22T05:10:14;20.00;68.40
9118;DHT22;4594;50.994;7.126;2022-07-22T05:12:40;19.90;68.10
9118;DHT22;4594;50.994;7.126;2022-07-22T05:15:06;20.10;68.30
9118;DHT22;4594;50.994;7.126;2022-07-22T05:17:33;20.10;68.50
9118;DHT22;4594;50.994;7.126;2022-07-22T05:19:59;20.10;68.50
9118;DHT22;4594;50.994;7.126;2022-07-22T05:22:28;20.10;68.50
9118;DHT22;4594;50.994;7.126;2022-07-22T05:24:54;20.10;68.50
9118;DHT22;4594;50.994;7.126;2022-07-22T05:27:19;20.30;68.80
9118;DHT22;4594;50.994;7.126;2022-07-22T05:29:46;20.20;69.00
9118;DHT22;4594;50.994;7.126;2022-07-22T05:32:12;20.20;68.70
9118;DHT22;4594;50.994;7.126;2022-07-22T05:34:37;20.20;68.70
9118;DHT22;4594;50.994;7.126;2022-07-22T05:37:03;20.30;68.80
9118;DHT22;4594;50.994;7.126;2022-07-22T05:39:29;20.30;68.70
9118;DHT22;4594;50.994;7.126;2022-07-22T05:41:55;20.30;68.50
9118;DHT22;4594;50.994;7.126;2022-07-22T05:44:20;20.40;68.50
9118;DHT22;4594;50.994;7.126;2022-07-22T05:46:46;20.30;68.40
9118;DHT22;4594;50.994;7.126;2022-07-22T05:49:12;20.50;68.40
9118;DHT22;4594;50.994;7.126;2022-07-22T05:51:37;20.40;68.20
9118;DHT22;4594;50.994;7.126;2022-07-22T05:54:03;20.40;68.20
9118;DHT22;4594;50.994;7.126;2022-07-22T05:56:29;20.30;68.20
9118;DHT22;4594;50.994;7.126;2022-07-22T05:58:55;20.40;68.40
9118;DHT22;4594;50.994;7.126;2022-07-22T06:01:24;20.40;68.50
9118;DHT22;4594;50.994;7.126;2022-07-22T06:03:50;20.40;68.60
9118;DHT22;4594;50.994;7.126;2022-07-22T06:06:16;20.40;68.60
9118;DHT22;4594;50.994;7.126;2022-07-22T06:08:42;20.40;68.30
9118;DHT22;4594;50.994;7.126;2022-07-22T06:11:08;20.40;68.40
9118;DHT22;4594;50.994;7.126;2022-07-22T06:13:33;20.50;68.40
9118;DHT22;4594;50.994;7.126;2022-07-22T06:16:00;20.50;68.40
9118;DHT22;4594;50.994;7.126;2022-07-22T06:18:26;20.60;68.50
9118;DHT22;4594;50.994;7.126;2022-07-22T06:20:52;20.50;68.50
9118;DHT22;4594;50.994;7.126;2022-07-22T06:23:18;20.50;68.60
9118;DHT22;4594;50.994;7.126;2022-07-22T06:25:43;20.60;68.90
9118;DHT22;4594;50.994;7.126;2022-07-22T06:28:10;20.60;68.90
9118;DHT22;4594;50.994;7.126;2022-07-22T06:30:36;20.60;68.80
9118;DHT22;4594;50.994;7.126;2022-07-22T06:33:02;20.70;68.70
9118;DHT22;4594;50.994;7.126;2022-07-22T06:35:28;20.70;68.40
9118;DHT22;4594;50.994;7.126;2022-07-22T06:37:54;20.90;68.40
9118;DHT22;4594;50.994;7.126;2022-07-22T06:40:20;20.80;68.30
9118;DHT22;4594;50.994;7.126;2022-07-22T06:42:46;20.70;68.20
9118;DHT22;4594;50.994;7.126;2022-07-22T06:45:11;20.90;68.50
9118;DHT22;4594;50.994;7.126;2022-07-22T06:47:37;20.80;68.20
9118;DHT22;4594;50.994;7.126;2022-07-22T06:50:04;20.80;68.20
9118;DHT22;4594;50.994;7.126;2022-07-22T06:52:31;20.80;68.10
9118;DHT22;4594;50.994;7.126;2022-07-22T06:54:57;20.80;68.20
9118;DHT22;4594;50.994;7.126;2022-07-22T06:57:23;20.80;68.00
9118;DHT22;4594;50.994;7.126;2022-07-22T06:59:49;20.80;68.10
9118;DHT22;4594;50.994;7.126;2022-07-22T07:02:15;20.90;68.30
9118;DHT22;4594;50.994;7.126;2022-07-22T07:04:41;20.90;67.90
9118;DHT22;4594;50.994;7.126;2022-07-22T07:07:07;20.90;67.30
9118;DHT22;4594;50.994;7.126;2022-07-22T07:09:33;20.90;67.40
9118;DHT22;4594;50.994;7.126;2022-07-22T07:11:59;21.00;67.60
9118;DHT22;4594;50.994;7.126;2022-07-22T07:14:25;20.90;67.70
9118;DHT22;4594;50.994;7.126;2022-07-22T07:16:51;21.00;68.10
9118;DHT22;4594;50.994;7.126;2022-07-22T07:19:17;21.00;68.30
9118;DHT22;4594;50.994;7.126;2022-07-22T07:21:45;21.00;68.60
9118;DHT22;4594;50.994;7.126;2022-07-22T07:24:10;21.10;68.90
9118;DHT22;4594;50.994;7.126;2022-07-22T07:26:37;21.10;69.00
9118;DHT22;4594;50.994;7.126;2022-07-22T07:29:03;21.10;68.60
9118;DHT22;4594;50.994;7.126;2022-07-22T07:31:28;21.20;68.60
9118;DHT22;4594;50.994;7.126;2022-07-22T07:33:54;21.30;68.20
9118;DHT22;4594;50.994;7.126;2022-07-22T07:36:20;21.30;67.70
9118;DHT22;4594;50.994;7.126;2022-07-22T07:38:46;21.30;67.50
9118;DHT22;4594;50.994;7.126;2022-07-22T07:41:12;21.40;67.30
9118;DHT22;4594;50.994;7.126;2022-07-22T07:43:38;21.40;67.70
9118;DHT22;4594;50.994;7.126;2022-07-22T07:46:04;21.40;67.60
9118;DHT22;4594;50.994;7.126;2022-07-22T07:48:30;21.30;67.50
9118;DHT22;4594;50.994;7.126;2022-07-22T07:50:56;21.50;67.90
9118;DHT22;4594;50.994;7.126;2022-07-22T07:53:22;21.60;68.20
9118;DHT22;4594;50.994;7.126;2022-07-22T07:55:48;21.50;68.40
9118;DHT22;4594;50.994;7.126;2022-07-22T07:58:14;21.60;68.70
9118;DHT22;4594;50.994;7.126;2022-07-22T08:00:40;21.70;68.40
9118;DHT22;4594;50.994;7.126;2022-07-22T08:03:08;21.70;68.00
9118;DHT22;4594;50.994;7.126;2022-07-22T08:05:34;21.80;68.30
9118;DHT22;4594;50.994;7.126;2022-07-22T08:08:00;21.80;68.20
9118;DHT22;4594;50.994;7.126;2022-07-22T08:10:27;21.90;68.10
9118;DHT22;4594;50.994;7.126;2022-07-22T08:12:53;21.90;68.10
9118;DHT22;4594;50.994;7.126;2022-07-22T08:15:21;21.90;68.00
9118;DHT22;4594;50.994;7.126;2022-07-22T08:17:47;22.10;67.90
9118;DHT22;4594;50.994;7.126;2022-07-22T08:20:12;22.00;67.20
9118;DHT22;4594;50.994;7.126;2022-07-22T08:22:39;22.00;67.00
9118;DHT22;4594;50.994;7.126;2022-07-22T08:25:05;21.90;67.00
9118;DHT22;4594;50.994;7.126;2022-07-22T08:27:31;22.10;67.30
9118;DHT22;4594;50.994;7.126;2022-07-22T08:29:57;22.10;66.90
9118;DHT22;4594;50.994;7.126;2022-07-22T08:32:23;22.10;66.90
9118;DHT22;4594;50.994;7.126;2022-07-22T08:34:49;22.20;66.60
9118;DHT22;4594;50.994;7.126;2022-07-22T08:37:15;22.20;66.20
9118;DHT22;4594;50.994;7.126;2022-07-22T08:39:41;22.10;65.60
9118;DHT22;4594;50.994;7.126;2022-07-22T08:42:07;22.20;66.30
9118;DHT22;4594;50.994;7.126;2022-07-22T08:44:33;22.20;65.20
9118;DHT22;4594;50.994;7.126;2022-07-22T08:47:00;22.20;64.70
9118;DHT22;4594;50.994;7.126;2022-07-22T08:49:27;22.10;64.40
9118;DHT22;4594;50.994;7.126;2022-07-22T08:51:53;22.10;64.30
9118;DHT22;4594;50.994;7.126;2022-07-22T08:54:19;22.10;64.50
9118;DHT22;4594;50.994;7.126;2022-07-22T08:56:49;22.10;64.30
9118;DHT22;4594;50.994;7.126;2022-07-22T08:59:16;22.10;63.50
9118;DHT22;4594;50.994;7.126;2022-07-22T09:02:08;22.10;64.80
9118;DHT22;4594;50.994;7.126;2022-07-22T09:04:56;22.10;62.70
9118;DHT22;4594;50.994;7.126;2022-07-22T09:07:33;22.10;61.70
9118;DHT22;4594;50.994;7.126;2022-07-22T09:10:05;22.10;62.00
9118;DHT22;4594;50.994;7.126;2022-07-22T09:12:33;22.00;63.50
9118;DHT22;4594;50.994;7.126;2022-07-22T09:15:01;22.00;63.80
9118;DHT22;4594;50.994;7.126;2022-07-22T09:17:37;22.00;63.80
9118;DHT22;4594;50.994;7.126;2022-07-22T09:20:15;22.00;61.90
9118;DHT22;4594;50.994;7.126;2022-07-22T09:22:46;22.00;60.90
9118;DHT22;4594;50.994;7.126;2022-07-22T09:25:34;21.90;62.20
9118;DHT22;4594;50.994;7.126;2022-07-22T09:30:38;21.90;62.60
9118;DHT22;4594;50.994;7.126;2022-07-22T09:33:07;21.90;63.00
9118;DHT22;4594;50.994;7.126;2022-07-22T09:35:33;21.90;63.80
9118;DHT22;4594;50.994;7.126;2022-07-22T09:38:05;21.90;63.50
9118;DHT22;4594;50.994;7.126;2022-07-22T09:40:39;21.90;63.40
9118;DHT22;4594;50.994;7.126;2022-07-22T09:43:11;21.90;62.80
9118;DHT22;4594;50.994;7.126;2022-07-22T09:45:58;21.90;63.30
9118;DHT22;4594;50.994;7.126;2022-07-22T09:48:24;21.90;62.30
9118;DHT22;4594;50.994;7.126;2022-07-22T09:50:52;21.90;64.70
9118;DHT22;4594;50.994;7.126;2022-07-22T09:53:20;22.00;65.10
9118;DHT22;4594;50.994;7.126;2022-07-22T09:55:48;22.10;65.50
9118;DHT22;4594;50.994;7.126;2022-07-22T09:58:14;22.20;66.30
9118;DHT22;4594;50.994;7.126;2022-07-22T10:00:42;22.20;66.60
9118;DHT22;4594;50.994;7.126;2022-07-22T10:03:11;22.30;67.50
9118;DHT22;4594;50.994;7.126;2022-07-22T10:05:42;22.50;66.30
9118;DHT22;4594;50.994;7.126;2022-07-22T10:08:09;22.60;67.60
9118;DHT22;4594;50.994;7.126;2022-07-22T10:10:37;22.70;67.60
9118;DHT22;4594;50.994;7.126;2022-07-22T10:13:05;22.90;68.10
9118;DHT22;4594;50.994;7.126;2022-07-22T10:15:33;23.10;70.00
9118;DHT22;4594;50.994;7.126;2022-07-22T10:18:02;23.40;70.20
9118;DHT22;4594;50.994;7.126;2022-07-22T10:20:32;23.60;69.50
9118;DHT22;4594;50.994;7.126;2022-07-22T10:23:07;23.80;70.20
9118;DHT22;4594;50.994;7.126;2022-07-22T10:25:54;24.10;69.80
9118;DHT22;4594;50.994;7.126;2022-07-22T10:28:26;24.40;64.70
9118;DHT22;4594;50.994;7.126;2022-07-22T10:31:20;24.60;69.70
9118;DHT22;4594;50.994;7.126;2022-07-22T10:33:54;24.90;65.80
9118;DHT22;4594;50.994;7.126;2022-07-22T10:36:36;25.10;69.00
9118;DHT22;4594;50.994;7.126;2022-07-22T10:39:12;25.30;64.70
9118;DHT22;4594;50.994;7.126;2022-07-22T10:41:41;25.50;64.50
9118;DHT22;4594;50.994;7.126;2022-07-22T10:44:08;25.70;63.90
9118;DHT22;4594;50.994;7.126;2022-07-22T10:46:54;25.80;64.10
9118;DHT22;4594;50.994;7.126;2022-07-22T10:49:26;25.80;59.50
9118;DHT22;4594;50.994;7.126;2022-07-22T10:55:20;26.20;63.20
9118;DHT22;4594;50.994;7.126;2022-07-22T10:57:47;26.40;62.10
9118;DHT22;4594;50.994;7.126;2022-07-22T11:00:16;26.60;66.30
9118;DHT22;4594;50.994;7.126;2022-07-22T11:02:42;26.80;62.10
9118;DHT22;4594;50.994;7.126;2022-07-22T11:05:08;26.90;60.90
9118;DHT22;4594;50.994;7.126;2022-07-22T11:07:41;26.90;61.30
9118;DHT22;4594;50.994;7.126;2022-07-22T11:10:14;26.90;58.20
9118;DHT22;4594;50.994;7.126;2022-07-22T11:12:42;27.00;58.60
9118;DHT22;4594;50.994;7.126;2022-07-22T11:15:09;27.10;59.60
9118;DHT22;4594;50.994;7.126;2022-07-22T11:17:36;27.10;58.30
9118;DHT22;4594;50.994;7.126;2022-07-22T11:20:08;27.10;58.80
9118;DHT22;4594;50.994;7.126;2022-07-22T11:22:35;27.10;57.50
9118;DHT22;4594;50.994;7.126;2022-07-22T11:25:05;27.30;60.50
9118;DHT22;4594;50.994;7.126;2022-07-22T11:27:33;27.40;59.20
9118;DHT22;4594;50.994;7.126;2022-07-22T11:29:59;27.60;60.90
9118;DHT22;4594;50.994;7.126;2022-07-22T11:32:27;27.80;61.10
9118;DHT22;4594;50.994;7.126;2022-07-22T11:34:56;28.10;61.90
9118;DHT22;4594;50.994;7.126;2022-07-22T11:37:24;28.40;63.20
9118;DHT22;4594;50.994;7.126;2022-07-22T11:39:52;28.60;63.10
9118;DHT22;4594;50.994;7.126;2022-07-22T11:42:25;29.00;64.30
9118;DHT22;4594;50.994;7.126;2022-07-22T11:44:51;29.30;63.50
9118;DHT22;4594;50.994;7.126;2022-07-22T11:47:17;29.60;62.40
9118;DHT22;4594;50.994;7.126;2022-07-22T11:49:46;29.80;61.10
9118;DHT22;4594;50.994;7.126;2022-07-22T11:52:15;30.00;57.80
9118;DHT22;4594;50.994;7.126;2022-07-22T11:54:43;30.10;56.80
9118;DHT22;4594;50.994;7.126;2022-07-22T11:57:11;30.10;55.40
9118;DHT22;4594;50.994;7.126;2022-07-22T11:59:38;30.10;55.10
9118;DHT22;4594;50.994;7.126;2022-07-22T12:02:05;30.10;54.40
9118;DHT22;4594;50.994;7.126;2022-07-22T12:04:33;30.00;54.10
9118;DHT22;4594;50.994;7.126;2022-07-22T12:07:00;30.00;54.30
9118;DHT22;4594;50.994;7.126;2022-07-22T12:09:33;30.00;54.00
9118;DHT22;4594;50.994;7.126;2022-07-22T12:12:02;29.90;52.30
9118;DHT22;4594;50.994;7.126;2022-07-22T12:14:30;29.80;53.50
9118;DHT22;4594;50.994;7.126;2022-07-22T12:17:01;29.80;52.40
9118;DHT22;4594;50.994;7.126;2022-07-22T12:19:33;29.70;52.30
9118;DHT22;4594;50.994;7.126;2022-07-22T12:22:11;29.60;51.70
9118;DHT22;4594;50.994;7.126;2022-07-22T12:24:46;29.40;50.40
9118;DHT22;4594;50.994;7.126;2022-07-22T12:27:25;29.30;50.10
9118;DHT22;4594;50.994;7.126;2022-07-22T12:29:51;29.10;50.40
9118;DHT22;4594;50.994;7.126;2022-07-22T12:35:02;28.70;48.40
9118;DHT22;4594;50.994;7.126;2022-07-22T12:37:40;28.50;47.90
9118;DHT22;4594;50.994;7.126;2022-07-22T12:40:16;28.40;49.90
9118;DHT22;4594;50.994;7.126;2022-07-22T12:45:35;28.10;50.90
9118;DHT22;4594;50.994;7.126;2022-07-22T12:55:39;27.80;52.20
9118;DHT22;4594;50.994;7.126;2022-07-22T12:58:07;27.80;52.40
9118;DHT22;4594;50.994;7.126;2022-07-22T13:00:39;27.90;52.70
9118;DHT22;4594;50.994;7.126;2022-07-22T13:03:06;27.90;51.60
9118;DHT22;4594;50.994;7.126;2022-07-22T13:05:32;27.90;52.20
9118;DHT22;4594;50.994;7.126;2022-07-22T13:08:00;27.80;51.50
9118;DHT22;4594;50.994;7.126;2022-07-22T13:10:26;27.70;51.20
9118;DHT22;4594;50.994;7.126;2022-07-22T13:12:52;27.60;50.30
9118;DHT22;4594;50.994;7.126;2022-07-22T13:15:20;27.60;50.20
9118;DHT22;4594;50.994;7.126;2022-07-22T13:17:47;27.40;50.00
9118;DHT22;4594;50.994;7.126;2022-07-22T13:20:14;27.40;50.60
9118;DHT22;4594;50.994;7.126;2022-07-22T13:22:43;27.30;50.90
9118;DHT22;4594;50.994;7.126;2022-07-22T13:25:09;27.20;50.90
9118;DHT22;4594;50.994;7.126;2022-07-22T13:27:35;27.10;51.30
9118;DHT22;4594;50.994;7.126;2022-07-22T13:30:01;27.10;51.70
9118;DHT22;4594;50.994;7.126;2022-07-22T13:32:28;27.10;51.70
9118;DHT22;4594;50.994;7.126;2022-07-22T13:34:53;27.00;51.80
9118;DHT22;4594;50.994;7.126;2022-07-22T13:37:23;27.10;51.70
9118;DHT22;4594;50.994;7.126;2022-07-22T13:39:49;27.00;51.80
9118;DHT22;4594;50.994;7.126;2022-07-22T13:42:16;27.00;51.80
9118;DHT22;4594;50.994;7.126;2022-07-22T13:44:46;27.00;52.10
9118;DHT22;4594;50.994;7.126;2022-07-22T13:47:12;26.90;51.80
9118;DHT22;4594;50.994;7.126;2022-07-22T13:49:38;26.90;52.10
9118;DHT22;4594;50.994;7.126;2022-07-22T13:52:04;27.00;52.10
9118;DHT22;4594;50.994;7.126;2022-07-22T13:54:31;26.90;52.10
9118;DHT22;4594;50.994;7.126;2022-07-22T13:56:58;26.90;52.20
9118;DHT22;4594;50.994;7.126;2022-07-22T13:59:25;26.90;51.60
9118;DHT22;4594;50.994;7.126;2022-07-22T14:01:51;26.90;51.50
9118;DHT22;4594;50.994;7.126;2022-07-22T14:04:17;27.00;51.50
9118;DHT22;4594;50.994;7.126;2022-07-22T14:06:43;26.90;51.70
9118;DHT22;4594;50.994;7.126;2022-07-22T14:09:09;26.70;51.70
9118;DHT22;4594;50.994;7.126;2022-07-22T14:11:34;26.90;51.90
9118;DHT22;4594;50.994;7.126;2022-07-22T14:14:00;26.90;51.80
9118;DHT22;4594;50.994;7.126;2022-07-22T14:16:26;26.90;51.80
9118;DHT22;4594;50.994;7.126;2022-07-22T14:19:06;26.90;51.90
9118;DHT22;4594;50.994;7.126;2022-07-22T14:21:34;26.80;50.80
9118;DHT22;4594;50.994;7.126;2022-07-22T14:24:02;26.80;51.60
9118;DHT22;4594;50.994;7.126;2022-07-22T14:26:29;26.80;51.40
9118;DHT22;4594;50.994;7.126;2022-07-22T14:28:55;26.80;51.30
9118;DHT22;4594;50.994;7.126;2022-07-22T14:31:21;26.70;51.50
9118;DHT22;4594;50.994;7.126;2022-07-22T14:33:47;26.70;51.50
9118;DHT22;4594;50.994;7.126;2022-07-22T14:36:13;26.70;51.40
9118;DHT22;4594;50.994;7.126;2022-07-22T14:38:39;26.80;52.20
9118;DHT22;4594;50.994;7.126;2022-07-22T14:41:05;26.80;52.10
9118;DHT22;4594;50.994;7.126;2022-07-22T14:43:33;26.80;51.90
9118;DHT22;4594;50.994;7.126;2022-07-22T14:46:00;26.80;51.70
9118;DHT22;4594;50.994;7.126;2022-07-22T14:48:27;26.80;52.20
9118;DHT22;4594;50.994;7.126;2022-07-22T14:50:53;26.80;52.10
9118;DHT22;4594;50.994;7.126;2022-07-22T14:53:19;26.80;52.30
9118;DHT22;4594;50.994;7.126;2022-07-22T14:55:45;26.90;52.20
9118;DHT22;4594;50.994;7.126;2022-07-22T14:58:11;26.90;51.90
9118;DHT22;4594;50.994;7.126;2022-07-22T15:00:36;26.90;52.00
9118;DHT22;4594;50.994;7.126;2022-07-22T15:03:02;26.90;51.70
9118;DHT22;4594;50.994;7.126;2022-07-22T15:05:28;26.80;51.30
9118;DHT22;4594;50.994;7.126;2022-07-22T15:07:54;26.90;51.40
9118;DHT22;4594;50.994;7.126;2022-07-22T15:10:19;26.90;50.70
9118;DHT22;4594;50.994;7.126;2022-07-22T15:12:45;26.80;50.90
9118;DHT22;4594;50.994;7.126;2022-07-22T15:15:11;26.70;50.60
9118;DHT22;4594;50.994;7.126;2022-07-22T15:17:37;26.70;50.70
9118;DHT22;4594;50.994;7.126;2022-07-22T15:20:05;26.70;50.60
9118;DHT22;4594;50.994;7.126;2022-07-22T15:22:32;26.70;50.60
9118;DHT22;4594;50.994;7.126;2022-07-22T15:24:59;26.70;50.80
9118;DHT22;4594;50.994;7.126;2022-07-22T15:27:25;26.60;51.00
9118;DHT22;4594;50.994;7.126;2022-07-22T15:29:51;26.60;50.60
9118;DHT22;4594;50.994;7.126;2022-07-22T15:32:17;26.60;50.60
9118;DHT22;4594;50.994;7.126;2022-07-22T15:34:43;26.50;50.50
9118;DHT22;4594;50.994;7.126;2022-07-22T15:37:09;26.60;51.00
9118;DHT22;4594;50.994;7.126;2022-07-22T15:39:35;26.50;50.70
9118;DHT22;4594;50.994;7.126;2022-07-22T15:42:01;26.50;50.50
9118;DHT22;4594;50.994;7.126;2022-07-22T15:44:27;26.60;51.00
9118;DHT22;4594;50.994;7.126;2022-07-22T15:46:53;26.50;51.10
9118;DHT22;4594;50.994;7.126;2022-07-22T15:49:23;26.50;50.70
9118;DHT22;4594;50.994;7.126;2022-07-22T15:51:49;26.50;50.60
9118;DHT22;4594;50.994;7.126;2022-07-22T15:54:15;26.50;50.80
9118;DHT22;4594;50.994;7.126;2022-07-22T15:56:41;26.50;50.80
9118;DHT22;4594;50.994;7.126;2022-07-22T15:59:07;26.50;50.80
9118;DHT22;4594;50.994;7.126;2022-07-22T16:01:51;26.40;51.00
9118;DHT22;4594;50.994;7.126;2022-07-22T16:04:17;26.40;51.00
9118;DHT22;4594;50.994;7.126;2022-07-22T16:06:44;26.40;51.00
9118;DHT22;4594;50.994;7.126;2022-07-22T16:09:10;26.30;50.90
9118;DHT22;4594;50.994;7.126;2022-07-22T16:11:36;26.30;51.00
9118;DHT22;4594;50.994;7.126;2022-07-22T16:14:02;26.30;51.10
9118;DHT22;4594;50.994;7.126;2022-07-22T16:16:27;26.30;51.10
9118;DHT22;4594;50.994;7.126;2022-07-22T16:18:53;26.30;51.40
9118;DHT22;4594;50.994;7.126;2022-07-22T16:21:19;26.30;51.10
9118;DHT22;4594;50.994;7.126;2022-07-22T16:23:45;26.20;51.00